sensor_id;sensor_type;location;lat;lon;timestamp;P1;durP1;ratioP1;P2;durP2;ratioP2
13941;SDS011;7043;51.630;7.254;2023-10-08T00:01:08;8.77;;;5.55;;
13941;SDS011;7043;51.630;7.254;2023-10-08T00:03:37;10.77;;;5.43;;
13941;SDS011;7043;51.630;7.254;2023-10-08T00:06:04;10.25;;;5.30;;
13941;SDS011;7043;51.630;7.254;2023-10-08T00:08:38;8.70;;;4.93;;
13941;SDS011;7043;51.630;7.254;2023-10-08T00:11:04;7.35;;;5.38;;
13941;SDS011;7043;51.630;7.254;2023-10-08T00:13:35;7.85;;;5.72;;
13941;SDS011;7043;51.630;7.254;2023-10-08T00:16:08;8.38;;;5.53;;
13941;SDS011;7043;51.630;7.254;2023-10-08T00:18:35;9.27;;;5.93;;
13941;SDS011;7043;51.630;7.254;2023-10-08T00:21:02;8.90;;;6.10;;
13941;SDS011;7043;51.630;7.254;2023-10-08T00:23:37;11.13;;;6.20;;
13941;SDS011;7043;51.630;7.254;2023-10-08T00:26:22;7.63;;;5.28;;
13941;SDS011;7043;51.630;7.254;2023-10-08T00:28:57;10.25;;;6.15;;
13941;SDS011;7043;51.630;7.254;2023-10-08T00:31:31;9.00;;;5.68;;
13941;SDS011;7043;51.630;7.254;2023-10-08T00:34:02;10.43;;;6.07;;
13941;SDS011;7043;51.630;7.254;2023-10-08T00:36:30;8.15;;;5.35;;
13941;SDS011;7043;51.630;7.254;2023-10-08T00:38:56;10.75;;;5.80;;
13941;SDS011;7043;51.630;7.254;2023-10-08T00:41:25;9.00;;;6.07;;
13941;SDS011;7043;51.630;7.254;2023-10-08T00:43:57;11.63;;;6.30;;
13941;SDS011;7043;51.630;7.254;2023-10-08T00:46:26;8.55;;;5.57;;
13941;SDS011;7043;51.630;7.254;2023-10-08T00:48:57;10.93;;;5.95;;
13941;SDS011;7043;51.630;7.254;2023-10-08T00:51:26;9.80;;;6.28;;
13941;SDS011;7043;51.630;7.254;2023-10-08T00:54:05;8.35;;;5.75;;
13941;SDS011;7043;51.630;7.254;2023-10-08T00:56:35;9.13;;;6.13;;
13941;SDS011;7043;51.630;7.254;2023-10-08T00:59:20;9.35;;;6.38;;
13941;SDS011;7043;51.630;7.254;2023-10-08T01:01:47;10.05;;;6.00;;
13941;SDS011;7043;51.630;7.254;2023-10-08T01:04:17;10.30;;;6.18;;
13941;SDS011;7043;51.630;7.254;2023-10-08T01:06:48;10.32;;;6.25;;
13941;SDS011;7043;51.630;7.254;2023-10-08T01:09:16;9.05;;;5.93;;
13941;SDS011;7043;51.630;7.254;2023-10-08T01:11:43;10.43;;;6.57;;
13941;SDS011;7043;51.630;7.254;2023-10-08T01:14:15;11.27;;;5.70;;
13941;SDS011;7043;51.630;7.254;2023-10-08T01:16:46;9.25;;;5.78;;
13941;SDS011;7043;51.630;7.254;2023-10-08T01:19:17;8.95;;;5.82;;
13941;SDS011;7043;51.630;7.254;2023-10-08T01:21:44;10.80;;;6.80;;
13941;SDS011;7043;51.630;7.254;2023-10-08T01:24:10;9.70;;;5.78;;
13941;SDS011;7043;51.630;7.254;2023-10-08T01:26:41;11.98;;;5.95;;
13941;SDS011;7043;51.630;7.254;2023-10-08T01:29:11;10.38;;;6.13;;
13941;SDS011;7043;51.630;7.254;2023-10-08T01:31:46;9.30;;;5.45;;
13941;SDS011;7043;51.630;7.254;2023-10-08T01:34:14;9.50;;;5.60;;
13941;SDS011;7043;51.630;7.254;2023-10-08T01:36:42;9.70;;;6.13;;
13941;SDS011;7043;51.630;7.254;2023-10-08T01:39:09;9.80;;;5.70;;
13941;SDS011;7043;51.630;7.254;2023-10-08T01:41:42;12.10;;;6.45;;
13941;SDS011;7043;51.630;7.254;2023-10-08T01:44:08;8.32;;;5.78;;
13941;SDS011;7043;51.630;7.254;2023-10-08T01:46:34;9.73;;;6.15;;
13941;SDS011;7043;51.630;7.254;2023-10-08T01:49:00;9.63;;;5.88;;
13941;SDS011;7043;51.630;7.254;2023-10-08T01:51:33;12.30;;;6.00;;
13941;SDS011;7043;51.630;7.254;2023-10-08T01:54:03;9.90;;;6.43;;
13941;SDS011;7043;51.630;7.254;2023-10-08T01:56:40;10.07;;;6.00;;
13941;SDS011;7043;51.630;7.254;2023-10-08T01:59:10;10.57;;;5.93;;
13941;SDS011;7043;51.630;7.254;2023-10-08T02:01:38;11.45;;;6.40;;
13941;SDS011;7043;51.630;7.254;2023-10-08T02:04:07;10.73;;;5.80;;
13941;SDS011;7043;51.630;7.254;2023-10-08T02:06:34;8.10;;;5.47;;
13941;SDS011;7043;51.630;7.254;2023-10-08T02:09:00;9.23;;;6.10;;
13941;SDS011;7043;51.630;7.254;2023-10-08T02:11:42;11.52;;;6.07;;
13941;SDS011;7043;51.630;7.254;2023-10-08T02:14:09;9.63;;;5.78;;
13941;SDS011;7043;51.630;7.254;2023-10-08T02:16:35;9.00;;;6.22;;
13941;SDS011;7043;51.630;7.254;2023-10-08T02:19:07;9.35;;;5.97;;
13941;SDS011;7043;51.630;7.254;2023-10-08T02:21:35;10.38;;;6.22;;
13941;SDS011;7043;51.630;7.254;2023-10-08T02:24:03;11.23;;;5.97;;
13941;SDS011;7043;51.630;7.254;2023-10-08T02:26:29;11.10;;;6.53;;
13941;SDS011;7043;51.630;7.254;2023-10-08T02:28:55;9.52;;;6.25;;
13941;SDS011;7043;51.630;7.254;2023-10-08T02:31:24;10.70;;;6.10;;
13941;SDS011;7043;51.630;7.254;2023-10-08T02:33:50;10.60;;;6.30;;
13941;SDS011;7043;51.630;7.254;2023-10-08T02:36:16;10.40;;;6.07;;
13941;SDS011;7043;51.630;7.254;2023-10-08T02:38:44;10.55;;;6.20;;
13941;SDS011;7043;51.630;7.254;2023-10-08T02:41:15;10.63;;;6.32;;
13941;SDS011;7043;51.630;7.254;2023-10-08T02:43:41;8.98;;;5.80;;
13941;SDS011;7043;51.630;7.254;2023-10-08T02:46:09;10.05;;;6.22;;
13941;SDS011;7043;51.630;7.254;2023-10-08T02:48:40;13.75;;;6.53;;
13941;SDS011;7043;51.630;7.254;2023-10-08T02:51:06;8.80;;;6.13;;
13941;SDS011;7043;51.630;7.254;2023-10-08T02:53:38;11.77;;;6.57;;
13941;SDS011;7043;51.630;7.254;2023-10-08T02:56:07;11.95;;;6.00;;
13941;SDS011;7043;51.630;7.254;2023-10-08T02:58:38;10.98;;;6.47;;
13941;SDS011;7043;51.630;7.254;2023-10-08T03:01:04;9.25;;;6.05;;
13941;SDS011;7043;51.630;7.254;2023-10-08T03:03:30;9.18;;;6.55;;
13941;SDS011;7043;51.630;7.254;2023-10-08T03:05:57;10.18;;;6.10;;
13941;SDS011;7043;51.630;7.254;2023-10-08T03:08:24;9.90;;;6.20;;
13941;SDS011;7043;51.630;7.254;2023-10-08T03:10:55;8.75;;;6.25;;
13941;SDS011;7043;51.630;7.254;2023-10-08T03:13:27;10.25;;;6.03;;
13941;SDS011;7043;51.630;7.254;2023-10-08T03:15:53;12.73;;;6.88;;
13941;SDS011;7043;51.630;7.254;2023-10-08T03:18:25;8.25;;;5.75;;
13941;SDS011;7043;51.630;7.254;2023-10-08T03:21:00;9.90;;;6.40;;
13941;SDS011;7043;51.630;7.254;2023-10-08T03:23:29;11.45;;;6.50;;
13941;SDS011;7043;51.630;7.254;2023-10-08T03:26:04;12.05;;;6.68;;
13941;SDS011;7043;51.630;7.254;2023-10-08T03:28:37;9.90;;;6.40;;
13941;SDS011;7043;51.630;7.254;2023-10-08T03:31:06;11.63;;;6.55;;
13941;SDS011;7043;51.630;7.254;2023-10-08T03:33:39;9.93;;;6.15;;
13941;SDS011;7043;51.630;7.254;2023-10-08T03:36:08;10.57;;;6.50;;
13941;SDS011;7043;51.630;7.254;2023-10-08T03:38:35;12.25;;;6.68;;
13941;SDS011;7043;51.630;7.254;2023-10-08T03:41:15;14.88;;;6.88;;
13941;SDS011;7043;51.630;7.254;2023-10-08T03:43:43;9.55;;;6.40;;
13941;SDS011;7043;51.630;7.254;2023-10-08T03:46:18;12.45;;;7.03;;
13941;SDS011;7043;51.630;7.254;2023-10-08T03:48:46;11.27;;;6.80;;
13941;SDS011;7043;51.630;7.254;2023-10-08T03:51:15;11.95;;;7.10;;
13941;SDS011;7043;51.630;7.254;2023-10-08T03:53:45;11.77;;;7.03;;
13941;SDS011;7043;51.630;7.254;2023-10-08T03:56:24;11.95;;;7.28;;
13941;SDS011;7043;51.630;7.254;2023-10-08T03:58:50;9.85;;;6.40;;
13941;SDS011;7043;51.630;7.254;2023-10-08T04:01:20;14.30;;;7.30;;
13941;SDS011;7043;51.630;7.254;2023-10-08T04:03:46;14.43;;;7.18;;
13941;SDS011;7043;51.630;7.254;2023-10-08T04:06:21;11.25;;;6.95;;
13941;SDS011;7043;51.630;7.254;2023-10-08T04:08:53;10.68;;;6.63;;
13941;SDS011;7043;51.630;7.254;2023-10-08T04:11:38;14.07;;;7.03;;
13941;SDS011;7043;51.630;7.254;2023-10-08T04:14:20;11.20;;;6.93;;
13941;SDS011;7043;51.630;7.254;2023-10-08T04:16:46;11.32;;;6.85;;
13941;SDS011;7043;51.630;7.254;2023-10-08T04:19:16;11.90;;;7.22;;
13941;SDS011;7043;51.630;7.254;2023-10-08T04:21:43;13.60;;;7.13;;
13941;SDS011;7043;51.630;7.254;2023-10-08T04:24:09;11.73;;;6.78;;
13941;SDS011;7043;51.630;7.254;2023-10-08T04:26:35;11.98;;;6.80;;
13941;SDS011;7043;51.630;7.254;2023-10-08T04:29:04;10.13;;;7.22;;
13941;SDS011;7043;51.630;7.254;2023-10-08T04:31:34;11.63;;;7.25;;
13941;SDS011;7043;51.630;7.254;2023-10-08T04:34:05;13.00;;;7.25;;
13941;SDS011;7043;51.630;7.254;2023-10-08T04:36:57;13.70;;;6.78;;
13941;SDS011;7043;51.630;7.254;2023-10-08T04:39:26;13.25;;;7.10;;
13941;SDS011;7043;51.630;7.254;2023-10-08T04:41:57;11.10;;;7.17;;
13941;SDS011;7043;51.630;7.254;2023-10-08T04:44:25;13.60;;;7.93;;
13941;SDS011;7043;51.630;7.254;2023-10-08T04:46:51;13.35;;;7.28;;
13941;SDS011;7043;51.630;7.254;2023-10-08T04:49:18;13.02;;;7.78;;
13941;SDS011;7043;51.630;7.254;2023-10-08T04:52:00;12.73;;;7.28;;
13941;SDS011;7043;51.630;7.254;2023-10-08T04:54:30;11.15;;;6.85;;
13941;SDS011;7043;51.630;7.254;2023-10-08T04:56:59;9.90;;;6.63;;
13941;SDS011;7043;51.630;7.254;2023-10-08T04:59:27;12.43;;;6.57;;
13941;SDS011;7043;51.630;7.254;2023-10-08T05:02:03;14.40;;;7.43;;
13941;SDS011;7043;51.630;7.254;2023-10-08T05:04:49;13.85;;;7.10;;
13941;SDS011;7043;51.630;7.254;2023-10-08T05:07:32;11.38;;;6.82;;
13941;SDS011;7043;51.630;7.254;2023-10-08T05:10:11;11.98;;;6.80;;
13941;SDS011;7043;51.630;7.254;2023-10-08T05:13:03;11.75;;;7.35;;
13941;SDS011;7043;51.630;7.254;2023-10-08T05:15:29;13.43;;;7.63;;
13941;SDS011;7043;51.630;7.254;2023-10-08T05:18:01;10.45;;;6.95;;
13941;SDS011;7043;51.630;7.254;2023-10-08T05:20:49;13.80;;;7.68;;
13941;SDS011;7043;51.630;7.254;2023-10-08T05:23:15;12.10;;;7.03;;
13941;SDS011;7043;51.630;7.254;2023-10-08T05:25:55;12.10;;;7.25;;
13941;SDS011;7043;51.630;7.254;2023-10-08T05:28:34;15.75;;;8.18;;
13941;SDS011;7043;51.630;7.254;2023-10-08T05:31:07;13.63;;;7.43;;
13941;SDS011;7043;51.630;7.254;2023-10-08T05:33:46;14.48;;;7.35;;
13941;SDS011;7043;51.630;7.254;2023-10-08T05:36:40;11.45;;;7.20;;
13941;SDS011;7043;51.630;7.254;2023-10-08T05:39:25;12.35;;;7.50;;
13941;SDS011;7043;51.630;7.254;2023-10-08T05:42:19;16.35;;;7.85;;
13941;SDS011;7043;51.630;7.254;2023-10-08T05:44:56;14.88;;;7.55;;
13941;SDS011;7043;51.630;7.254;2023-10-08T05:47:34;14.57;;;8.02;;
13941;SDS011;7043;51.630;7.254;2023-10-08T05:50:00;14.85;;;8.07;;
13941;SDS011;7043;51.630;7.254;2023-10-08T05:52:42;12.48;;;7.45;;
13941;SDS011;7043;51.630;7.254;2023-10-08T05:55:24;13.50;;;7.78;;
13941;SDS011;7043;51.630;7.254;2023-10-08T05:57:54;13.90;;;7.55;;
13941;SDS011;7043;51.630;7.254;2023-10-08T06:00:42;17.27;;;8.55;;
13941;SDS011;7043;51.630;7.254;2023-10-08T06:03:32;12.10;;;8.00;;
13941;SDS011;7043;51.630;7.254;2023-10-08T06:06:01;16.13;;;7.95;;
13941;SDS011;7043;51.630;7.254;2023-10-08T06:08:40;12.57;;;7.57;;
13941;SDS011;7043;51.630;7.254;2023-10-08T06:11:25;16.23;;;7.82;;
13941;SDS011;7043;51.630;7.254;2023-10-08T06:14:09;16.00;;;8.35;;
13941;SDS011;7043;51.630;7.254;2023-10-08T06:17:07;13.95;;;8.35;;
13941;SDS011;7043;51.630;7.254;2023-10-08T06:19:49;11.73;;;9.35;;
13941;SDS011;7043;51.630;7.254;2023-10-08T06:22:17;14.38;;;8.23;;
13941;SDS011;7043;51.630;7.254;2023-10-08T06:24:44;14.02;;;7.90;;
13941;SDS011;7043;51.630;7.254;2023-10-08T06:27:10;16.77;;;8.50;;
13941;SDS011;7043;51.630;7.254;2023-10-08T06:29:42;13.27;;;8.30;;
13941;SDS011;7043;51.630;7.254;2023-10-08T06:32:09;12.07;;;8.18;;
13941;SDS011;7043;51.630;7.254;2023-10-08T06:34:37;11.30;;;8.15;;
13941;SDS011;7043;51.630;7.254;2023-10-08T06:37:05;6.87;;;5.40;;
13941;SDS011;7043;51.630;7.254;2023-10-08T06:39:33;8.97;;;6.20;;
13941;SDS011;7043;51.630;7.254;2023-10-08T06:42:12;6.67;;;6.03;;
13941;SDS011;7043;51.630;7.254;2023-10-08T06:44:39;7.83;;;6.60;;
13941;SDS011;7043;51.630;7.254;2023-10-08T06:47:08;10.53;;;8.37;;
13941;SDS011;7043;51.630;7.254;2023-10-08T06:49:34;12.90;;;10.73;;
13941;SDS011;7043;51.630;7.254;2023-10-08T06:52:01;14.00;;;9.97;;
13941;SDS011;7043;51.630;7.254;2023-10-08T06:54:29;10.53;;;9.37;;
13941;SDS011;7043;51.630;7.254;2023-10-08T06:56:55;9.90;;;8.87;;
13941;SDS011;7043;51.630;7.254;2023-10-08T06:59:21;8.90;;;8.00;;
13941;SDS011;7043;51.630;7.254;2023-10-08T07:01:48;8.63;;;7.70;;
13941;SDS011;7043;51.630;7.254;2023-10-08T07:04:17;9.03;;;8.10;;
13941;SDS011;7043;51.630;7.254;2023-10-08T07:06:44;9.40;;;8.40;;
13941;SDS011;7043;51.630;7.254;2023-10-08T07:09:13;8.77;;;7.83;;
13941;SDS011;7043;51.630;7.254;2023-10-08T07:11:52;11.97;;;7.67;;
13941;SDS011;7043;51.630;7.254;2023-10-08T07:14:19;8.00;;;7.20;;
13941;SDS011;7043;51.630;7.254;2023-10-08T07:16:45;6.90;;;6.10;;
13941;SDS011;7043;51.630;7.254;2023-10-08T07:19:13;6.87;;;6.00;;
13941;SDS011;7043;51.630;7.254;2023-10-08T07:21:44;5.20;;;4.70;;
13941;SDS011;7043;51.630;7.254;2023-10-08T07:24:13;4.63;;;4.03;;
13941;SDS011;7043;51.630;7.254;2023-10-08T07:26:45;4.27;;;3.77;;
13941;SDS011;7043;51.630;7.254;2023-10-08T07:29:12;4.00;;;3.70;;
13941;SDS011;7043;51.630;7.254;2023-10-08T07:31:41;5.43;;;3.70;;
13941;SDS011;7043;51.630;7.254;2023-10-08T07:34:08;4.00;;;3.70;;
13941;SDS011;7043;51.630;7.254;2023-10-08T07:36:54;2.67;;;2.47;;
13941;SDS011;7043;51.630;7.254;2023-10-08T07:39:21;2.63;;;2.30;;
13941;SDS011;7043;51.630;7.254;2023-10-08T07:41:56;2.60;;;2.40;;
13941;SDS011;7043;51.630;7.254;2023-10-08T07:44:24;2.73;;;2.53;;
13941;SDS011;7043;51.630;7.254;2023-10-08T07:46:52;3.07;;;2.60;;
13941;SDS011;7043;51.630;7.254;2023-10-08T07:49:21;4.40;;;2.40;;
13941;SDS011;7043;51.630;7.254;2023-10-08T07:51:56;3.23;;;2.50;;
13941;SDS011;7043;51.630;7.254;2023-10-08T07:54:23;2.80;;;2.60;;
13941;SDS011;7043;51.630;7.254;2023-10-08T07:56:50;2.70;;;2.50;;
13941;SDS011;7043;51.630;7.254;2023-10-08T07:59:33;2.50;;;2.00;;
13941;SDS011;7043;51.630;7.254;2023-10-08T08:02:03;3.60;;;1.93;;
13941;SDS011;7043;51.630;7.254;2023-10-08T08:04:35;2.53;;;1.80;;
13941;SDS011;7043;51.630;7.254;2023-10-08T08:07:01;2.20;;;2.00;;
13941;SDS011;7043;51.630;7.254;2023-10-08T08:09:29;2.30;;;1.80;;
13941;SDS011;7043;51.630;7.254;2023-10-08T08:11:55;2.40;;;2.20;;
13941;SDS011;7043;51.630;7.254;2023-10-08T08:14:22;2.40;;;1.93;;
13941;SDS011;7043;51.630;7.254;2023-10-08T08:16:51;2.10;;;2.00;;
13941;SDS011;7043;51.630;7.254;2023-10-08T08:19:17;1.90;;;1.80;;
13941;SDS011;7043;51.630;7.254;2023-10-08T08:21:50;2.60;;;2.10;;
13941;SDS011;7043;51.630;7.254;2023-10-08T08:24:17;3.00;;;1.20;;
13941;SDS011;7043;51.630;7.254;2023-10-08T08:26:57;1.30;;;1.00;;
13941;SDS011;7043;51.630;7.254;2023-10-08T08:29:27;2.53;;;0.73;;
13941;SDS011;7043;51.630;7.254;2023-10-08T08:31:54;1.63;;;0.60;;
13941;SDS011;7043;51.630;7.254;2023-10-08T08:34:22;2.03;;;0.70;;
13941;SDS011;7043;51.630;7.254;2023-10-08T08:36:49;2.13;;;1.00;;
13941;SDS011;7043;51.630;7.254;2023-10-08T08:39:15;2.10;;;0.80;;
13941;SDS011;7043;51.630;7.254;2023-10-08T08:42:08;1.47;;;1.03;;
13941;SDS011;7043;51.630;7.254;2023-10-08T08:44:35;2.67;;;1.10;;
13941;SDS011;7043;51.630;7.254;2023-10-08T08:47:11;3.53;;;1.10;;
13941;SDS011;7043;51.630;7.254;2023-10-08T08:49:42;3.07;;;1.20;;
13941;SDS011;7043;51.630;7.254;2023-10-08T08:52:08;3.30;;;1.20;;
13941;SDS011;7043;51.630;7.254;2023-10-08T08:54:34;3.80;;;1.20;;
13941;SDS011;7043;51.630;7.254;2023-10-08T08:57:02;3.70;;;1.23;;
13941;SDS011;7043;51.630;7.254;2023-10-08T08:59:29;3.53;;;1.73;;
13941;SDS011;7043;51.630;7.254;2023-10-08T09:01:59;2.03;;;1.60;;
13941;SDS011;7043;51.630;7.254;2023-10-08T09:04:29;3.70;;;1.87;;
13941;SDS011;7043;51.630;7.254;2023-10-08T09:06:55;2.47;;;1.80;;
13941;SDS011;7043;51.630;7.254;2023-10-08T09:09:22;4.57;;;1.57;;
13941;SDS011;7043;51.630;7.254;2023-10-08T09:11:49;3.30;;;1.70;;
13941;SDS011;7043;51.630;7.254;2023-10-08T09:14:21;4.93;;;1.40;;
13941;SDS011;7043;51.630;7.254;2023-10-08T09:16:47;5.03;;;1.40;;
13941;SDS011;7043;51.630;7.254;2023-10-08T09:19:14;6.37;;;1.40;;
13941;SDS011;7043;51.630;7.254;2023-10-08T09:21:59;5.00;;;1.30;;
13941;SDS011;7043;51.630;7.254;2023-10-08T09:24:25;5.60;;;1.57;;
13941;SDS011;7043;51.630;7.254;2023-10-08T09:26:54;3.23;;;1.33;;
13941;SDS011;7043;51.630;7.254;2023-10-08T09:29:23;6.30;;;1.57;;
13941;SDS011;7043;51.630;7.254;2023-10-08T09:31:55;5.87;;;1.50;;
13941;SDS011;7043;51.630;7.254;2023-10-08T09:34:23;4.27;;;1.30;;
13941;SDS011;7043;51.630;7.254;2023-10-08T09:36:51;5.00;;;1.40;;
13941;SDS011;7043;51.630;7.254;2023-10-08T09:39:18;5.47;;;2.13;;
13941;SDS011;7043;51.630;7.254;2023-10-08T09:41:49;6.50;;;2.20;;
13941;SDS011;7043;51.630;7.254;2023-10-08T09:44:16;4.33;;;2.43;;
13941;SDS011;7043;51.630;7.254;2023-10-08T09:46:44;4.40;;;2.47;;
13941;SDS011;7043;51.630;7.254;2023-10-08T09:49:13;4.80;;;2.67;;
13941;SDS011;7043;51.630;7.254;2023-10-08T09:51:41;6.87;;;2.70;;
13941;SDS011;7043;51.630;7.254;2023-10-08T09:54:13;4.40;;;2.50;;
13941;SDS011;7043;51.630;7.254;2023-10-08T09:56:41;3.30;;;2.20;;
13941;SDS011;7043;51.630;7.254;2023-10-08T09:59:09;4.43;;;2.00;;
13941;SDS011;7043;51.630;7.254;2023-10-08T10:01:36;4.63;;;2.20;;
13941;SDS011;7043;51.630;7.254;2023-10-08T10:04:09;3.50;;;1.90;;
13941;SDS011;7043;51.630;7.254;2023-10-08T10:06:36;4.53;;;2.00;;
13941;SDS011;7043;51.630;7.254;2023-10-08T10:09:02;4.60;;;2.10;;
13941;SDS011;7043;51.630;7.254;2023-10-08T10:11:40;6.27;;;2.00;;
13941;SDS011;7043;51.630;7.254;2023-10-08T10:14:06;3.33;;;1.30;;
13941;SDS011;7043;51.630;7.254;2023-10-08T10:16:35;2.90;;;1.50;;
13941;SDS011;7043;51.630;7.254;2023-10-08T10:19:03;3.17;;;1.93;;
13941;SDS011;7043;51.630;7.254;2023-10-08T10:21:30;4.73;;;2.60;;
13941;SDS011;7043;51.630;7.254;2023-10-08T10:23:57;7.97;;;6.37;;
13941;SDS011;7043;51.630;7.254;2023-10-08T10:26:31;13.07;;;8.77;;
13941;SDS011;7043;51.630;7.254;2023-10-08T10:31:40;8.93;;;5.97;;
13941;SDS011;7043;51.630;7.254;2023-10-08T10:34:11;7.53;;;5.70;;
13941;SDS011;7043;51.630;7.254;2023-10-08T10:36:38;8.37;;;7.17;;
13941;SDS011;7043;51.630;7.254;2023-10-08T10:39:07;9.70;;;7.40;;
13941;SDS011;7043;51.630;7.254;2023-10-08T10:41:46;8.20;;;6.70;;
13941;SDS011;7043;51.630;7.254;2023-10-08T10:44:13;10.87;;;7.87;;
13941;SDS011;7043;51.630;7.254;2023-10-08T10:46:42;7.80;;;6.90;;
13941;SDS011;7043;51.630;7.254;2023-10-08T10:49:15;8.60;;;7.27;;
13941;SDS011;7043;51.630;7.254;2023-10-08T10:51:48;8.07;;;6.40;;
13941;SDS011;7043;51.630;7.254;2023-10-08T10:54:17;8.60;;;7.17;;
13941;SDS011;7043;51.630;7.254;2023-10-08T10:56:48;10.30;;;8.07;;
13941;SDS011;7043;51.630;7.254;2023-10-08T10:59:28;11.07;;;7.23;;
13941;SDS011;7043;51.630;7.254;2023-10-08T11:02:01;8.00;;;4.97;;
13941;SDS011;7043;51.630;7.254;2023-10-08T11:04:34;7.07;;;3.73;;
13941;SDS011;7043;51.630;7.254;2023-10-08T11:07:12;4.73;;;2.40;;
13941;SDS011;7043;51.630;7.254;2023-10-08T11:09:38;5.67;;;2.47;;
13941;SDS011;7043;51.630;7.254;2023-10-08T11:12:09;4.30;;;1.70;;
13941;SDS011;7043;51.630;7.254;2023-10-08T11:14:41;7.93;;;2.47;;
13941;SDS011;7043;51.630;7.254;2023-10-08T11:17:14;6.30;;;2.80;;
13941;SDS011;7043;51.630;7.254;2023-10-08T11:19:41;4.17;;;1.67;;
13941;SDS011;7043;51.630;7.254;2023-10-08T11:22:10;4.80;;;1.77;;
13941;SDS011;7043;51.630;7.254;2023-10-08T11:24:41;5.97;;;1.43;;
13941;SDS011;7043;51.630;7.254;2023-10-08T11:27:09;8.77;;;2.20;;
13941;SDS011;7043;51.630;7.254;2023-10-08T11:29:49;6.20;;;2.10;;
13941;SDS011;7043;51.630;7.254;2023-10-08T11:32:23;5.57;;;2.00;;
13941;SDS011;7043;51.630;7.254;2023-10-08T11:34:57;5.83;;;2.00;;
13941;SDS011;7043;51.630;7.254;2023-10-08T11:37:33;4.20;;;1.80;;
13941;SDS011;7043;51.630;7.254;2023-10-08T11:40:00;4.80;;;1.97;;
13941;SDS011;7043;51.630;7.254;2023-10-08T11:42:34;3.80;;;1.97;;
13941;SDS011;7043;51.630;7.254;2023-10-08T11:45:00;4.90;;;1.90;;
13941;SDS011;7043;51.630;7.254;2023-10-08T11:47:45;6.50;;;2.10;;
13941;SDS011;7043;51.630;7.254;2023-10-08T11:50:16;3.90;;;2.00;;
13941;SDS011;7043;51.630;7.254;2023-10-08T11:52:45;6.17;;;1.80;;
13941;SDS011;7043;51.630;7.254;2023-10-08T11:55:11;7.13;;;1.83;;
13941;SDS011;7043;51.630;7.254;2023-10-08T11:57:49;4.82;;;2.05;;
13941;SDS011;7043;51.630;7.254;2023-10-08T12:00:16;4.95;;;2.30;;
13941;SDS011;7043;51.630;7.254;2023-10-08T12:02:47;5.07;;;2.13;;
13941;SDS011;7043;51.630;7.254;2023-10-08T12:05:13;5.63;;;2.10;;
13941;SDS011;7043;51.630;7.254;2023-10-08T12:07:49;4.87;;;1.60;;
13941;SDS011;7043;51.630;7.254;2023-10-08T12:10:23;4.97;;;2.13;;
13941;SDS011;7043;51.630;7.254;2023-10-08T12:15:17;4.47;;;1.70;;
13941;SDS011;7043;51.630;7.254;2023-10-08T12:17:48;4.27;;;1.77;;
13941;SDS011;7043;51.630;7.254;2023-10-08T12:20:32;3.73;;;1.67;;
13941;SDS011;7043;51.630;7.254;2023-10-08T12:22:59;5.37;;;1.70;;
13941;SDS011;7043;51.630;7.254;2023-10-08T12:25:26;3.43;;;1.83;;
13941;SDS011;7043;51.630;7.254;2023-10-08T12:27:52;3.50;;;1.70;;
13941;SDS011;7043;51.630;7.254;2023-10-08T12:30:18;3.70;;;1.90;;
13941;SDS011;7043;51.630;7.254;2023-10-08T12:32:55;4.37;;;1.90;;
13941;SDS011;7043;51.630;7.254;2023-10-08T12:35:22;6.27;;;2.03;;
13941;SDS011;7043;51.630;7.254;2023-10-08T12:37:49;3.77;;;1.93;;
13941;SDS011;7043;51.630;7.254;2023-10-08T12:40:15;3.38;;;2.00;;
13941;SDS011;7043;51.630;7.254;2023-10-08T12:42:50;5.43;;;2.10;;
13941;SDS011;7043;51.630;7.254;2023-10-08T12:45:16;6.50;;;1.90;;
13941;SDS011;7043;51.630;7.254;2023-10-08T12:47:52;5.90;;;1.67;;
13941;SDS011;7043;51.630;7.254;2023-10-08T12:50:18;4.17;;;2.07;;
13941;SDS011;7043;51.630;7.254;2023-10-08T12:53:08;4.03;;;1.50;;
13941;SDS011;7043;51.630;7.254;2023-10-08T12:55:36;4.00;;;1.77;;
13941;SDS011;7043;51.630;7.254;2023-10-08T12:58:05;3.65;;;1.77;;
13941;SDS011;7043;51.630;7.254;2023-10-08T13:00:37;3.88;;;1.35;;
13941;SDS011;7043;51.630;7.254;2023-10-08T13:03:06;3.40;;;1.50;;
13941;SDS011;7043;51.630;7.254;2023-10-08T13:05:40;3.90;;;1.43;;
13941;SDS011;7043;51.630;7.254;2023-10-08T13:08:09;2.97;;;1.50;;
13941;SDS011;7043;51.630;7.254;2023-10-08T13:10:35;2.50;;;1.30;;
13941;SDS011;7043;51.630;7.254;2023-10-08T13:13:06;4.00;;;1.30;;
13941;SDS011;7043;51.630;7.254;2023-10-08T13:15:32;3.00;;;1.20;;
13941;SDS011;7043;51.630;7.254;2023-10-08T13:18:00;3.88;;;1.90;;
13941;SDS011;7043;51.630;7.254;2023-10-08T13:20:29;3.90;;;1.07;;
13941;SDS011;7043;51.630;7.254;2023-10-08T13:22:58;3.10;;;1.20;;
13941;SDS011;7043;51.630;7.254;2023-10-08T13:25:24;3.40;;;1.30;;
13941;SDS011;7043;51.630;7.254;2023-10-08T13:27:51;6.20;;;1.23;;
13941;SDS011;7043;51.630;7.254;2023-10-08T13:30:17;2.77;;;1.10;;
13941;SDS011;7043;51.630;7.254;2023-10-08T13:32:45;4.27;;;1.33;;
13941;SDS011;7043;51.630;7.254;2023-10-08T13:35:11;2.57;;;0.80;;
13941;SDS011;7043;51.630;7.254;2023-10-08T13:37:37;2.47;;;1.00;;
13941;SDS011;7043;51.630;7.254;2023-10-08T13:40:05;3.73;;;1.07;;
13941;SDS011;7043;51.630;7.254;2023-10-08T13:42:31;2.60;;;0.98;;
13941;SDS011;7043;51.630;7.254;2023-10-08T13:44:57;3.43;;;0.90;;
13941;SDS011;7043;51.630;7.254;2023-10-08T13:47:24;2.60;;;0.98;;
13941;SDS011;7043;51.630;7.254;2023-10-08T13:49:53;4.23;;;1.30;;
13941;SDS011;7043;51.630;7.254;2023-10-08T13:52:20;3.33;;;1.02;;
13941;SDS011;7043;51.630;7.254;2023-10-08T13:54:46;2.47;;;1.10;;
13941;SDS011;7043;51.630;7.254;2023-10-08T13:57:17;1.80;;;1.03;;
13941;SDS011;7043;51.630;7.254;2023-10-08T13:59:44;3.50;;;1.10;;
13941;SDS011;7043;51.630;7.254;2023-10-08T14:02:11;3.10;;;1.00;;
13941;SDS011;7043;51.630;7.254;2023-10-08T14:04:43;2.87;;;1.10;;
13941;SDS011;7043;51.630;7.254;2023-10-08T14:07:12;2.22;;;1.13;;
13941;SDS011;7043;51.630;7.254;2023-10-08T14:09:42;3.10;;;1.30;;
13941;SDS011;7043;51.630;7.254;2023-10-08T14:12:10;3.37;;;1.30;;
13941;SDS011;7043;51.630;7.254;2023-10-08T14:14:36;3.27;;;1.10;;
13941;SDS011;7043;51.630;7.254;2023-10-08T14:17:06;3.23;;;1.20;;
13941;SDS011;7043;51.630;7.254;2023-10-08T14:19:32;3.43;;;1.40;;
13941;SDS011;7043;51.630;7.254;2023-10-08T14:22:24;4.03;;;2.07;;
13941;SDS011;7043;51.630;7.254;2023-10-08T14:24:52;3.70;;;1.60;;
13941;SDS011;7043;51.630;7.254;2023-10-08T14:27:27;3.67;;;1.42;;
13941;SDS011;7043;51.630;7.254;2023-10-08T14:30:05;2.03;;;1.20;;
13941;SDS011;7043;51.630;7.254;2023-10-08T14:32:31;4.37;;;1.40;;
13941;SDS011;7043;51.630;7.254;2023-10-08T14:35:00;3.95;;;1.77;;
13941;SDS011;7043;51.630;7.254;2023-10-08T14:37:44;5.05;;;1.50;;
13941;SDS011;7043;51.630;7.254;2023-10-08T14:40:29;3.40;;;1.60;;
13941;SDS011;7043;51.630;7.254;2023-10-08T14:43:33;2.65;;;1.50;;
13941;SDS011;7043;51.630;7.254;2023-10-08T14:46:00;2.93;;;1.70;;
13941;SDS011;7043;51.630;7.254;2023-10-08T14:48:30;5.63;;;1.35;;
13941;SDS011;7043;51.630;7.254;2023-10-08T14:50:56;3.67;;;1.45;;
13941;SDS011;7043;51.630;7.254;2023-10-08T14:53:22;3.05;;;1.40;;
13941;SDS011;7043;51.630;7.254;2023-10-08T14:55:49;3.25;;;1.48;;
13941;SDS011;7043;51.630;7.254;2023-10-08T14:58:16;2.83;;;1.50;;
13941;SDS011;7043;51.630;7.254;2023-10-08T15:00:43;6.20;;;3.23;;
13941;SDS011;7043;51.630;7.254;2023-10-08T15:03:10;3.35;;;1.60;;
13941;SDS011;7043;51.630;7.254;2023-10-08T15:05:37;3.15;;;1.52;;
13941;SDS011;7043;51.630;7.254;2023-10-08T15:08:05;3.53;;;1.70;;
13941;SDS011;7043;51.630;7.254;2023-10-08T15:10:39;3.70;;;1.70;;
13941;SDS011;7043;51.630;7.254;2023-10-08T15:13:06;3.60;;;2.00;;
13941;SDS011;7043;51.630;7.254;2023-10-08T15:15:32;2.53;;;1.83;;
13941;SDS011;7043;51.630;7.254;2023-10-08T15:17:59;4.60;;;2.10;;
13941;SDS011;7043;51.630;7.254;2023-10-08T15:20:28;4.50;;;2.20;;
13941;SDS011;7043;51.630;7.254;2023-10-08T15:22:57;3.03;;;2.20;;
13941;SDS011;7043;51.630;7.254;2023-10-08T15:25:23;5.67;;;2.67;;